createdAt,value
2018-07-22T00:00:39.868Z,3.80
2018-07-22T00:03:09.189Z,4.43
2018-07-22T00:05:38.533Z,3.27
2018-07-22T00:08:08.095Z,5.10
2018-07-22T00:10:37.271Z,4.33
2018-07-22T00:13:06.539Z,6.20
2018-07-22T00:15:36.218Z,5.97
2018-07-22T00:18:05.824Z,5.20
2018-07-22T00:20:35.562Z,4.87
2018-07-22T00:23:04.985Z,4.20
2018-07-22T00:25:34.424Z,4.83
2018-07-22T00:28:03.863Z,4.03
2018-07-22T00:30:33.460Z,3.53
2018-07-22T00:33:02.898Z,5.10
2018-07-22T00:35:32.463Z,3.67
2018-07-22T00:38:01.820Z,4.67
2018-07-22T00:40:31.097Z,4.87
2018-07-22T00:43:00.498Z,3.40
2018-07-22T00:45:29.732Z,3.70
2018-07-22T00:47:59.017Z,5.50
2018-07-22T00:50:28.663Z,3.10
2018-07-22T00:52:57.948Z,5.30
2018-07-22T00:55:27.643Z,3.20
2018-07-22T00:57:57.340Z,4.13
2018-07-22T01:00:26.721Z,4.57
2018-07-22T01:02:56.483Z,3.80
2018-07-22T01:05:25.487Z,6.90
2018-07-22T01:07:54.656Z,4.40
2018-07-22T01:10:24.120Z,3.67
2018-07-22T01:12:53.801Z,7.47
2018-07-22T01:15:23.142Z,4.33
2018-07-22T01:17:52.297Z,6.17
2018-07-22T01:20:21.615Z,6.13
2018-07-22T01:22:50.999Z,4.73
2018-07-22T01:25:20.592Z,3.80
2018-07-22T01:27:50.472Z,6.00
2018-07-22T01:30:19.960Z,4.00
2018-07-22T01:32:49.221Z,4.20
2018-07-22T01:35:18.865Z,4.73
2018-07-22T01:37:48.228Z,5.93
2018-07-22T01:40:17.817Z,4.73
2018-07-22T01:42:47.120Z,5.20
2018-07-22T01:45:16.712Z,5.73
2018-07-22T01:47:46.530Z,8.23
2018-07-22T01:50:15.459Z,4.40
2018-07-22T01:52:44.849Z,5.23
2018-07-22T01:55:13.999Z,5.37
2018-07-22T01:57:43.397Z,6.20
2018-07-22T02:00:12.892Z,4.10
2018-07-22T02:02:42.911Z,4.17
2018-07-22T02:05:12.252Z,4.70
2018-07-22T02:07:41.800Z,9.93
2018-07-22T02:10:11.039Z,4.43
2018-07-22T02:12:40.533Z,12.00
2018-07-22T02:15:10.113Z,5.87
2018-07-22T02:17:40.692Z,4.63
2018-07-22T02:20:10.231Z,5.67
2018-07-22T02:22:39.802Z,3.80
2018-07-22T02:25:08.767Z,3.40
2018-07-22T02:27:38.698Z,3.77
2018-07-22T02:30:08.549Z,3.63
2018-07-22T02:32:38.474Z,6.33
2018-07-22T02:35:07.753Z,6.07
2018-07-22T02:37:37.398Z,4.13
2018-07-22T02:40:06.542Z,8.20
2018-07-22T02:42:36.001Z,4.27
2018-07-22T02:45:05.630Z,7.73
2018-07-22T02:47:35.093Z,6.30
2018-07-22T02:50:04.705Z,6.53
2018-07-22T02:52:34.056Z,6.53
2018-07-22T02:55:03.837Z,4.33
2018-07-22T02:57:33.631Z,4.73
2018-07-22T03:00:03.129Z,6.60
2018-07-22T03:02:32.666Z,5.30
2018-07-22T03:05:02.255Z,6.43
2018-07-22T03:07:31.920Z,5.93
2018-07-22T03:10:01.620Z,5.30
2018-07-22T03:12:30.753Z,5.23
2018-07-22T03:14:59.888Z,6.87
2018-07-22T03:17:29.269Z,5.23
2018-07-22T03:19:58.624Z,4.27
2018-07-22T03:22:28.632Z,6.17
2018-07-22T03:24:58.440Z,4.00
2018-07-22T03:27:28.173Z,6.60
2018-07-22T03:29:58.267Z,6.70
2018-07-22T03:32:28.323Z,4.77
2018-07-22T03:34:57.782Z,6.23
2018-07-22T03:37:27.231Z,4.83
2018-07-22T03:39:56.697Z,6.67
2018-07-22T03:42:26.289Z,3.70
2018-07-22T03:44:55.599Z,5.13
2018-07-22T03:47:24.977Z,4.50
2018-07-22T03:49:54.356Z,4.43
2018-07-22T03:52:23.472Z,4.70
2018-07-22T03:54:53.168Z,5.57
2018-07-22T03:57:22.806Z,4.37
2018-07-22T03:59:52.358Z,7.83
2018-07-22T04:02:21.750Z,4.67
2018-07-22T04:04:51.077Z,6.60
2018-07-22T04:07:20.673Z,4.77
2018-07-22T04:09:50.391Z,4.57
2018-07-22T04:12:19.858Z,4.53
2018-07-22T04:14:49.399Z,5.07
2018-07-22T04:17:18.550Z,5.77
2018-07-22T04:19:48.144Z,6.30
2018-07-22T04:22:17.626Z,3.63
2018-07-22T04:24:47.271Z,4.90
2018-07-22T04:27:16.658Z,6.97
2018-07-22T04:29:46.099Z,4.20
2018-07-22T04:32:15.795Z,4.73
2018-07-22T04:34:45.359Z,4.27
2018-07-22T04:37:14.734Z,4.63
2018-07-22T04:39:44.360Z,5.27
2018-07-22T04:42:13.831Z,3.33
2018-07-22T04:44:43.397Z,3.60
2018-07-22T04:47:12.708Z,4.63
2018-07-22T04:49:42.155Z,5.33
2018-07-22T04:52:11.521Z,5.70
2018-07-22T04:54:40.918Z,5.77
2018-07-22T04:57:10.233Z,6.40
2018-07-22T04:59:39.622Z,4.10
2018-07-22T05:02:09.432Z,4.22
2018-07-22T05:04:39.098Z,4.17
2018-07-22T05:07:08.443Z,4.93
2018-07-22T05:09:37.973Z,4.50
2018-07-22T05:12:07.804Z,4.90
2018-07-22T05:14:37.166Z,5.77
2018-07-22T05:17:06.508Z,4.47
2018-07-22T05:19:36.070Z,4.12
2018-07-22T05:22:05.590Z,5.07
2018-07-22T05:24:35.265Z,4.93
2018-07-22T05:27:04.945Z,5.50
2018-07-22T05:29:34.568Z,2.73
2018-07-22T05:32:04.239Z,5.57
2018-07-22T05:34:33.413Z,5.30
2018-07-22T05:37:02.744Z,7.20
2018-07-22T05:39:32.583Z,3.03
2018-07-22T05:42:02.049Z,4.80
2018-07-22T05:44:31.750Z,8.40
2018-07-22T05:47:01.050Z,5.20
2018-07-22T05:49:30.652Z,4.57
2018-07-22T05:51:59.911Z,3.50
2018-07-22T05:54:29.179Z,3.63
2018-07-22T05:56:58.753Z,4.27
2018-07-22T05:59:28.400Z,4.67
2018-07-22T06:01:57.825Z,5.50
2018-07-22T06:04:27.481Z,3.37
2018-07-22T06:06:56.708Z,6.77
2018-07-22T06:09:26.304Z,4.47
2018-07-22T06:11:55.559Z,3.43
2018-07-22T06:14:24.767Z,6.73
2018-07-22T06:16:54.095Z,5.97
2018-07-22T06:19:23.911Z,4.77
2018-07-22T06:21:53.503Z,4.40
2018-07-22T06:24:24.041Z,2.93
2018-07-22T06:26:53.753Z,3.57
2018-07-22T06:29:23.068Z,5.00
2018-07-22T06:31:52.278Z,5.13
2018-07-22T06:34:21.936Z,5.17
2018-07-22T06:36:53.402Z,4.57
2018-07-22T06:39:22.732Z,4.07
2018-07-22T06:41:52.463Z,5.17
2018-07-22T06:44:21.818Z,3.70
2018-07-22T06:46:51.208Z,3.93
2018-07-22T06:49:20.561Z,4.53
2018-07-22T06:51:49.973Z,4.60
2018-07-22T06:54:19.496Z,9.37
2018-07-22T06:56:49.169Z,4.40
2018-07-22T06:59:18.361Z,3.90
2018-07-22T07:01:48.051Z,3.47
2018-07-22T07:04:17.266Z,3.03
2018-07-22T07:06:46.698Z,3.37
2018-07-22T07:09:15.823Z,4.80
2018-07-22T07:11:45.441Z,4.37
2018-07-22T07:14:14.672Z,4.60
2018-07-22T07:16:43.993Z,3.95
2018-07-22T07:19:13.444Z,5.43
2018-07-22T07:21:43.053Z,4.60
2018-07-22T07:24:12.539Z,3.87
2018-07-22T07:26:42.963Z,3.17
2018-07-22T07:29:12.539Z,5.13
2018-07-22T07:31:42.201Z,5.23
2018-07-22T07:34:11.745Z,4.80
2018-07-22T07:36:41.461Z,4.07
2018-07-22T07:39:12.468Z,3.07
2018-07-22T07:41:42.101Z,3.80
2018-07-22T07:44:12.665Z,3.83
2018-07-22T07:46:42.147Z,4.33
2018-07-22T07:49:12.654Z,5.30
2018-07-22T07:51:42.331Z,2.70
2018-07-22T07:54:11.482Z,2.83
2018-07-22T07:56:40.890Z,4.17
2018-07-22T07:59:10.432Z,4.77
2018-07-22T08:01:39.764Z,5.03
2018-07-22T08:04:09.218Z,7.57
2018-07-22T08:06:38.508Z,5.63
2018-07-22T08:09:09.592Z,4.43
2018-07-22T08:11:38.861Z,5.43
2018-07-22T08:14:08.358Z,3.47
2018-07-22T08:16:38.089Z,4.37
2018-07-22T08:19:07.593Z,5.07
2018-07-22T08:21:37.650Z,2.93
2018-07-22T08:24:07.259Z,4.80
2018-07-22T08:26:36.654Z,4.30
2018-07-22T08:29:33.901Z,3.67
2018-07-22T08:32:04.620Z,3.20
2018-07-22T08:34:33.861Z,3.77
2018-07-22T08:37:03.233Z,4.33
2018-07-22T08:39:33.285Z,2.20
2018-07-22T08:42:02.758Z,4.07
2018-07-22T08:44:32.905Z,9.73
2018-07-22T08:47:02.379Z,3.33
2018-07-22T08:49:31.978Z,4.03
2018-07-22T08:52:02.152Z,3.33
2018-07-22T08:54:31.521Z,4.93
2018-07-22T08:57:01.081Z,3.93
2018-07-22T08:59:30.713Z,7.37
2018-07-22T09:02:00.715Z,3.47
2018-07-22T09:04:30.592Z,4.80
2018-07-22T09:07:00.051Z,3.70
2018-07-22T09:09:29.627Z,3.67
2018-07-22T09:11:59.263Z,2.50
2018-07-22T09:14:28.540Z,3.50
2018-07-22T09:16:58.219Z,2.83
2018-07-22T09:19:27.565Z,3.93
2018-07-22T09:21:57.062Z,3.83
2018-07-22T09:24:26.581Z,3.00
2018-07-22T09:26:56.276Z,2.13
2018-07-22T09:29:25.621Z,2.20
2018-07-22T09:31:55.114Z,2.77
2018-07-22T09:34:24.695Z,3.17
2018-07-22T09:36:54.305Z,4.00
2018-07-22T09:39:24.179Z,2.57
2018-07-22T09:41:53.642Z,2.40
2018-07-22T09:44:23.139Z,2.93
2018-07-22T09:46:52.400Z,2.30
2018-07-22T09:49:21.748Z,3.60
2018-07-22T09:51:51.589Z,2.80
2018-07-22T09:54:20.942Z,3.33
2018-07-22T09:56:50.311Z,3.87
2018-07-22T09:59:20.273Z,3.30
2018-07-22T10:01:50.016Z,3.83
2018-07-22T10:04:19.671Z,3.73
2018-07-22T10:06:49.160Z,3.17
2018-07-22T10:09:18.730Z,3.57
2018-07-22T10:11:48.151Z,3.23
2018-07-22T10:14:17.883Z,2.00
2018-07-22T10:16:47.303Z,2.73
2018-07-22T10:19:17.032Z,2.97
2018-07-22T10:21:46.586Z,3.07
2018-07-22T10:24:15.763Z,2.67
2018-07-22T10:26:45.051Z,3.67
2018-07-22T10:29:14.591Z,2.73
2018-07-22T10:31:44.660Z,2.83
2018-07-22T10:34:14.185Z,4.10
2018-07-22T10:36:43.433Z,3.20
2018-07-22T10:39:13.463Z,2.77
2018-07-22T10:41:42.602Z,3.17
2018-07-22T10:44:12.266Z,3.30
2018-07-22T10:46:42.075Z,2.90
2018-07-22T10:49:11.391Z,2.77
2018-07-22T10:51:41.773Z,4.20
2018-07-22T10:54:10.956Z,2.43
2018-07-22T10:56:40.671Z,1.90
2018-07-22T10:59:10.013Z,2.90
2018-07-22T11:01:39.719Z,2.30
2018-07-22T11:04:09.273Z,2.00
2018-07-22T11:06:38.861Z,4.23
2018-07-22T11:09:10.401Z,2.80
2018-07-22T11:11:39.551Z,2.17
2018-07-22T11:14:09.259Z,2.10
2018-07-22T11:16:38.893Z,3.13
2018-07-22T11:19:08.423Z,2.20
2018-07-22T11:21:37.739Z,3.97
2018-07-22T11:24:07.087Z,2.47
2018-07-22T11:26:36.950Z,3.97
2018-07-22T11:29:06.570Z,3.07
2018-07-22T11:31:36.508Z,2.63
2018-07-22T11:34:06.234Z,2.60
2018-07-22T11:36:35.652Z,2.10
2018-07-22T11:39:06.811Z,2.57
2018-07-22T11:41:37.156Z,2.60
2018-07-22T11:44:07.079Z,2.33
2018-07-22T11:46:37.442Z,2.47
2018-07-22T11:49:07.560Z,2.07
2018-07-22T11:51:38.067Z,3.47
2018-07-22T11:54:08.253Z,2.53
2018-07-22T11:56:37.977Z,2.97
2018-07-22T11:59:07.669Z,3.03
2018-07-22T12:01:37.179Z,3.33
2018-07-22T12:04:07.359Z,3.30
2018-07-22T12:06:36.804Z,2.17
2018-07-22T12:09:09.444Z,2.43
2018-07-22T12:11:38.623Z,2.97
2018-07-22T12:14:08.062Z,2.27
2018-07-22T12:16:37.439Z,4.87
2018-07-22T12:19:07.222Z,3.63
2018-07-22T12:21:36.810Z,1.83
2018-07-22T12:24:06.451Z,2.73
2018-07-22T12:26:36.029Z,2.27
2018-07-22T12:29:05.606Z,4.07
2018-07-22T12:31:34.930Z,2.00
2018-07-22T12:34:04.302Z,2.90
2018-07-22T12:36:33.930Z,4.03
2018-07-22T12:39:04.123Z,4.83
2018-07-22T12:41:33.493Z,2.23
2018-07-22T12:44:03.511Z,2.33
2018-07-22T12:46:33.022Z,1.57
2018-07-22T12:49:02.609Z,2.40
2018-07-22T12:51:32.347Z,2.57
2018-07-22T12:54:02.196Z,2.73
2018-07-22T12:56:31.853Z,2.63
2018-07-22T12:59:01.410Z,2.37
2018-07-22T13:01:30.918Z,2.13
2018-07-22T13:04:00.287Z,2.43
2018-07-22T13:06:30.082Z,1.63
2018-07-22T13:08:59.524Z,3.00
2018-07-22T13:11:28.828Z,1.80
2018-07-22T13:13:58.575Z,1.70
2018-07-22T13:16:28.346Z,2.40
2018-07-22T13:18:57.821Z,1.73
2018-07-22T13:21:27.350Z,2.13
2018-07-22T13:23:56.882Z,1.70
2018-07-22T13:26:26.204Z,1.83
2018-07-22T13:28:55.794Z,2.13
2018-07-22T13:31:25.420Z,4.50
2018-07-22T13:33:55.068Z,1.93
2018-07-22T13:36:24.408Z,1.80
2018-07-22T13:38:53.989Z,2.17
2018-07-22T13:41:23.500Z,1.70
2018-07-22T13:43:53.318Z,2.50
2018-07-22T13:46:22.938Z,4.83
2018-07-22T13:48:52.818Z,2.63
2018-07-22T13:51:22.249Z,3.03
2018-07-22T13:53:51.984Z,2.10
2018-07-22T13:56:21.783Z,2.57
2018-07-22T13:58:51.274Z,1.70
2018-07-22T14:01:20.813Z,1.80
2018-07-22T14:03:50.334Z,2.40
2018-07-22T14:06:19.764Z,2.50
2018-07-22T14:08:49.281Z,2.37
2018-07-22T14:11:18.867Z,1.80
2018-07-22T14:13:48.224Z,3.23
2018-07-22T14:16:17.970Z,3.60
2018-07-22T14:18:47.413Z,1.70
2018-07-22T14:21:16.952Z,2.57
2018-07-22T14:23:46.569Z,2.10
2018-07-22T14:26:16.441Z,1.53
2018-07-22T14:28:46.049Z,2.37
2018-07-22T14:31:15.783Z,1.87
2018-07-22T14:33:45.161Z,2.03
2018-07-22T14:36:14.341Z,2.80
2018-07-22T14:38:43.813Z,1.73
2018-07-22T14:41:13.723Z,2.27
2018-07-22T14:43:43.399Z,3.33
2018-07-22T14:46:13.148Z,1.73
2018-07-22T14:48:42.304Z,1.73
2018-07-22T14:51:11.855Z,1.90
2018-07-22T14:53:41.541Z,2.13
2018-07-22T14:56:11.082Z,2.93
2018-07-22T14:58:40.429Z,1.93
2018-07-22T15:01:13.059Z,1.73
2018-07-22T15:03:44.119Z,2.03
2018-07-22T15:06:14.329Z,2.13
2018-07-22T15:08:44.292Z,2.57
2018-07-22T15:11:13.954Z,2.00
2018-07-22T15:13:43.280Z,2.30
2018-07-22T15:16:12.969Z,4.03
2018-07-22T15:18:43.099Z,2.00
2018-07-22T15:21:12.338Z,4.33
2018-07-22T15:23:42.814Z,1.80
2018-07-22T15:26:12.020Z,2.13
2018-07-22T15:28:41.180Z,2.40
2018-07-22T15:31:10.466Z,2.60
2018-07-22T15:33:39.892Z,2.50
2018-07-22T15:36:09.578Z,2.30
2018-07-22T15:38:39.083Z,2.70
2018-07-22T15:41:08.658Z,2.33
2018-07-22T15:43:38.224Z,3.40
2018-07-22T15:46:08.096Z,2.67
2018-07-22T15:48:37.418Z,2.87
2018-07-22T15:51:08.261Z,1.90
2018-07-22T15:53:37.860Z,1.77
2018-07-22T15:56:07.277Z,2.10
2018-07-22T15:58:37.083Z,2.83
2018-07-22T16:01:06.939Z,2.83
2018-07-22T16:03:36.279Z,1.93
2018-07-22T16:06:06.028Z,1.50
2018-07-22T16:08:35.807Z,2.63
2018-07-22T16:11:05.437Z,3.07
2018-07-22T16:13:34.887Z,2.10
2018-07-22T16:16:04.445Z,1.83
2018-07-22T16:18:34.049Z,2.47
2018-07-22T16:21:03.883Z,1.70
2018-07-22T16:23:33.266Z,2.23
2018-07-22T16:26:03.093Z,2.10
2018-07-22T16:28:32.389Z,2.23
2018-07-22T16:31:01.769Z,1.90
2018-07-22T16:33:31.129Z,2.73
2018-07-22T16:36:00.880Z,1.67
2018-07-22T16:38:30.648Z,2.43
2018-07-22T16:41:00.358Z,2.83
2018-07-22T16:43:29.764Z,3.40
2018-07-22T16:45:59.189Z,1.73
2018-07-22T16:48:28.881Z,1.77
2018-07-22T16:50:59.388Z,3.80
2018-07-22T16:53:29.221Z,4.43
2018-07-22T16:55:59.007Z,2.47
2018-07-22T16:58:28.707Z,1.63
2018-07-22T17:00:58.437Z,2.77
2018-07-22T17:03:28.111Z,1.73
2018-07-22T17:05:57.731Z,1.95
2018-07-22T17:08:27.336Z,2.93
2018-07-22T17:10:57.060Z,2.60
2018-07-22T17:13:26.430Z,1.97
2018-07-22T17:15:56.025Z,2.27
2018-07-22T17:18:25.656Z,1.93
2018-07-22T17:20:54.890Z,2.27
2018-07-22T17:23:24.447Z,2.80
2018-07-22T17:25:54.107Z,2.20
2018-07-22T17:28:23.751Z,2.83
2018-07-22T17:30:53.269Z,4.50
2018-07-22T17:33:22.726Z,4.33
2018-07-22T17:35:52.231Z,4.43
2018-07-22T17:38:21.739Z,5.20
2018-07-22T17:40:51.237Z,4.90
2018-07-22T17:43:20.626Z,7.63
2018-07-22T17:45:50.009Z,6.40
2018-07-22T17:48:19.447Z,3.87
2018-07-22T17:50:49.059Z,5.17
2018-07-22T17:53:18.809Z,4.33
2018-07-22T17:55:48.142Z,5.00
2018-07-22T17:58:17.788Z,4.83
2018-07-22T18:00:47.451Z,5.03
2018-07-22T18:03:27.860Z,7.93
2018-07-22T18:05:57.377Z,5.33
2018-07-22T18:08:26.662Z,5.53
2018-07-22T18:10:56.435Z,4.73
2018-07-22T18:13:25.740Z,5.77
2018-07-22T18:15:55.839Z,4.40
2018-07-22T18:18:24.850Z,4.70
2018-07-22T18:20:54.479Z,4.30
2018-07-22T18:23:23.930Z,5.00
2018-07-22T18:25:53.553Z,6.50
2018-07-22T18:28:22.827Z,6.37
2018-07-22T18:30:52.429Z,5.57
2018-07-22T18:33:22.019Z,5.20
2018-07-22T18:35:51.384Z,4.50
2018-07-22T18:38:20.890Z,4.27
2018-07-22T18:40:50.064Z,4.20
2018-07-22T18:43:19.650Z,5.47
2018-07-22T18:45:49.445Z,5.17
2018-07-22T18:48:19.131Z,4.37
2018-07-22T18:50:48.992Z,5.13
2018-07-22T18:53:18.249Z,6.00
2018-07-22T18:55:47.342Z,8.23
2018-07-22T18:58:16.948Z,5.17
2018-07-22T19:00:46.586Z,4.97
2018-07-22T19:03:16.297Z,7.03
2018-07-22T19:05:45.711Z,6.13
2018-07-22T19:08:15.050Z,6.47
2018-07-22T19:10:44.726Z,4.20
2018-07-22T19:13:14.915Z,3.93
2018-07-22T19:15:44.392Z,3.87
2018-07-22T19:18:14.095Z,6.13
2018-07-22T19:20:43.442Z,5.07
2018-07-22T19:23:12.819Z,6.23
2018-07-22T19:25:42.773Z,4.70
2018-07-22T19:28:12.251Z,5.17
2018-07-22T19:30:42.008Z,6.33
2018-07-22T19:33:11.707Z,7.30
2018-07-22T19:35:40.863Z,5.30
2018-07-22T19:38:10.844Z,4.67
2018-07-22T19:40:40.474Z,6.07
2018-07-22T19:43:09.997Z,5.27
2018-07-22T19:45:39.784Z,6.50
2018-07-22T19:48:09.420Z,4.80
2018-07-22T19:50:38.954Z,4.57
2018-07-22T19:53:08.580Z,6.00
2018-07-22T19:55:38.014Z,4.93
2018-07-22T19:58:07.400Z,6.30
2018-07-22T20:00:36.862Z,5.93
2018-07-22T20:03:06.502Z,5.30
2018-07-22T20:05:36.177Z,6.63
2018-07-22T20:08:05.139Z,8.33
2018-07-22T20:10:34.554Z,5.43
2018-07-22T20:13:04.429Z,4.87
2018-07-22T20:15:33.937Z,4.90
2018-07-22T20:18:03.566Z,5.00
2018-07-22T20:20:33.310Z,4.97
2018-07-22T20:23:02.888Z,5.70
2018-07-22T20:25:32.657Z,4.60
2018-07-22T20:28:02.430Z,5.63
2018-07-22T20:30:31.725Z,5.23
2018-07-22T20:33:01.076Z,5.30
2018-07-22T20:35:30.737Z,6.67
2018-07-22T20:38:00.301Z,5.33
2018-07-22T20:40:29.981Z,5.27
2018-07-22T20:42:59.850Z,4.93
2018-07-22T20:45:29.123Z,5.80
2018-07-22T20:47:58.541Z,5.10
2018-07-22T20:50:28.207Z,5.67
2018-07-22T20:52:57.740Z,5.93
2018-07-22T20:55:27.333Z,5.80
2018-07-22T20:57:56.792Z,5.63
2018-07-22T21:00:26.458Z,6.53
2018-07-22T21:02:56.173Z,7.03
2018-07-22T21:05:25.563Z,7.70
2018-07-22T21:07:55.296Z,6.83
2018-07-22T21:10:25.038Z,7.27
2018-07-22T21:13:05.547Z,5.43
2018-07-22T21:15:35.298Z,7.10
2018-07-22T21:18:04.924Z,7.27
2018-07-22T21:20:34.395Z,5.77
2018-07-22T21:23:04.072Z,5.77
2018-07-22T21:25:33.358Z,6.03
2018-07-22T21:28:02.882Z,8.43
2018-07-22T21:30:32.582Z,7.93
2018-07-22T21:33:02.120Z,7.60
2018-07-22T21:35:31.870Z,7.23
2018-07-22T21:38:01.445Z,6.47
2018-07-22T21:40:31.000Z,5.33
2018-07-22T21:43:00.491Z,4.77
2018-07-22T21:45:30.168Z,6.37
2018-07-22T21:47:59.857Z,5.93
2018-07-22T21:50:29.365Z,7.07
2018-07-22T21:52:58.649Z,8.70
2018-07-22T21:55:28.275Z,5.20
2018-07-22T21:57:57.780Z,6.13
2018-07-22T22:00:33.563Z,5.37
2018-07-22T22:03:04.366Z,5.53
2018-07-22T22:05:34.025Z,6.37
2018-07-22T22:08:03.870Z,6.00
2018-07-22T22:10:33.411Z,5.70
2018-07-22T22:13:03.364Z,5.30
2018-07-22T22:15:33.503Z,5.00
2018-07-22T22:18:04.804Z,5.93
2018-07-22T22:20:34.616Z,5.93
2018-07-22T22:23:04.357Z,7.20
2018-07-22T22:25:33.803Z,6.60
2018-07-22T22:28:03.259Z,6.00
2018-07-22T22:30:32.891Z,6.90
2018-07-22T22:33:02.624Z,7.23
2018-07-22T22:35:31.959Z,5.90
2018-07-22T22:38:01.762Z,6.40
2018-07-22T22:40:31.340Z,8.40
2018-07-22T22:43:00.764Z,6.33
2018-07-22T22:45:30.251Z,6.60
2018-07-22T22:47:59.538Z,7.77
2018-07-22T22:50:28.969Z,5.97
2018-07-22T22:52:58.196Z,7.13
2018-07-22T22:55:27.687Z,7.83
2018-07-22T22:58:07.999Z,7.13
2018-07-22T23:00:37.602Z,6.40
2018-07-22T23:03:07.130Z,7.23
2018-07-22T23:05:36.539Z,6.73
2018-07-22T23:08:06.013Z,8.00
2018-07-22T23:10:35.447Z,4.90
2018-07-22T23:13:04.828Z,6.73
2018-07-22T23:15:34.508Z,6.20
2018-07-22T23:18:03.944Z,6.17
2018-07-22T23:20:33.452Z,6.93
2018-07-22T23:23:03.073Z,6.90
2018-07-22T23:25:32.531Z,5.10
2018-07-22T23:28:01.807Z,5.83
2018-07-22T23:30:31.264Z,6.90
2018-07-22T23:33:00.892Z,6.30
2018-07-22T23:35:30.281Z,6.30
2018-07-22T23:38:00.030Z,5.83
2018-07-22T23:40:29.683Z,6.40
2018-07-22T23:42:58.986Z,6.17
2018-07-22T23:45:28.334Z,6.33
2018-07-22T23:47:57.658Z,6.33
2018-07-22T23:50:27.251Z,6.50
2018-07-22T23:52:56.593Z,5.33
2018-07-22T23:55:26.269Z,5.77
2018-07-22T23:57:55.901Z,5.63
